This is the latest recevied weather packets stored in our database for station/object N7CW. If no packets are shown the sender has not sent any weather packets the latest 10 day(s).
| Time | Temp. | Humidity | Pressure | Rain* | Wind** | Luminosity | Snow |
|---|---|---|---|---|---|---|---|
| 1777109888 | 9.44° C | 33% | 1011.5 hPa | 0 mm | - | 0 W/m² | - |
| 1777109585 | 8.89° C | 33% | 1011.5 hPa | 0 mm | - | 0 W/m² | - |
| 1777109282 | 8.33° C | 34% | 1011.5 hPa | 0 mm | - | 0 W/m² | - |
| 1777108976 | 7.78° C | 37% | 1011.6 hPa | 0 mm | - | 0 W/m² | - |
| 1777108672 | 8.33° C | 33% | 1011.8 hPa | 0 mm | - | 0 W/m² | - |
| 1777108369 | 8.89° C | 32% | 1011.6 hPa | 0 mm | - | 0 W/m² | - |
| 1777108065 | 7.22° C | 36% | 1011.4 hPa | 0 mm | - | 0 W/m² | - |
| 1777107761 | 6.67° C | 37% | 1011.6 hPa | 0 mm | - | 0 W/m² | - |
| 1777107460 | 7.78° C | 35% | 1011.6 hPa | 0 mm | - | 0 W/m² | - |
| 1777107158 | 7.22° C | 36% | 1011.6 hPa | 0 mm | - | 0 W/m² | - |
| 1777106852 | 6.67° C | 38% | 1011.5 hPa | 0 mm | - | 0 W/m² | - |
| 1777106549 | 7.22° C | 38% | 1011.8 hPa | 0 mm | - | 0 W/m² | - |
| 1777106246 | 7.78° C | 35% | 1012 hPa | 0 mm | - | 0 W/m² | - |
| 1777105941 | 9.44° C | 34% | 1011.6 hPa | 0 mm | - | 0 W/m² | - |
| 1777105638 | 8.89° C | 33% | 1012.1 hPa | 0 mm | - | 0 W/m² | - |
| 1777105334 | 8.33° C | 34% | 1012.1 hPa | 0 mm | - | 0 W/m² | - |
| 1777105029 | 8.89° C | 35% | 1012.1 hPa | 0 mm | - | 0 W/m² | - |
| 1777104727 | 8.89° C | 33% | 1012.1 hPa | 0 mm | - | 0 W/m² | - |
| 1777104424 | 10° C | 33% | 1012.1 hPa | 0 mm | - | 0 W/m² | - |
| 1777104124 | 10° C | 33% | 1012.2 hPa | 0 mm | - | 0 W/m² | - |
| 1777103821 | 10° C | 32% | 1012.5 hPa | 0 mm | - | 0 W/m² | - |
| 1777103518 | 10° C | 32% | 1012.4 hPa | 0 mm | - | 0 W/m² | - |
| 1777103215 | 9.44° C | 32% | 1012.4 hPa | 0 mm | - | 0 W/m² | - |
| 1777102912 | 9.44° C | 33% | 1012.5 hPa | 0 mm | - | 0 W/m² | - |
| 1777102609 | 9.44° C | 32% | 1012.5 hPa | 0 mm | - | 0 W/m² | - |
* Rain latest hour (hover to see other rain measurements)
** Current wind speed in m/s (hover to see current wind gust speed)